sensor_id;sensor_type;location;lat;lon;timestamp;pressure;altitude;pressure_sealevel;temperature;humidity
73700;BME280;62005;50.082;8.988;2022-08-24T00:00:12;100497.09;;;23.69;43.67
73700;BME280;62005;50.082;8.988;2022-08-24T00:02:37;100501.00;;;23.68;43.71
73700;BME280;62005;50.082;8.988;2022-08-24T00:05:03;100458.03;;;23.35;44.46
73700;BME280;62005;50.082;8.988;2022-08-24T00:07:29;100504.47;;;23.60;44.09
73700;BME280;62005;50.082;8.988;2022-08-24T00:09:56;100502.91;;;23.54;44.42
73700;BME280;62005;50.082;8.988;2022-08-24T00:12:21;100509.56;;;23.53;44.12
73700;BME280;62005;50.082;8.988;2022-08-24T00:14:47;100509.13;;;23.46;44.44
73700;BME280;62005;50.082;8.988;2022-08-24T00:17:12;100509.84;;;23.38;44.83
73700;BME280;62005;50.082;8.988;2022-08-24T00:19:38;100501.13;;;23.31;44.92
73700;BME280;62005;50.082;8.988;2022-08-24T00:22:04;100517.50;;;23.41;45.08
73700;BME280;62005;50.082;8.988;2022-08-24T00:24:29;100491.88;;;23.21;44.89
73700;BME280;62005;50.082;8.988;2022-08-24T00:26:55;100507.69;;;23.35;44.67
73700;BME280;62005;50.082;8.988;2022-08-24T00:29:21;100507.47;;;23.31;45.13
73700;BME280;62005;50.082;8.988;2022-08-24T00:31:47;100492.50;;;23.18;44.90
73700;BME280;62005;50.082;8.988;2022-08-24T00:34:13;100484.00;;;23.15;45.49
73700;BME280;62005;50.082;8.988;2022-08-24T00:36:40;100508.91;;;23.29;44.90
73700;BME280;62005;50.082;8.988;2022-08-24T00:39:06;100507.31;;;23.22;46.13
73700;BME280;62005;50.082;8.988;2022-08-24T00:41:32;100504.13;;;23.15;46.23
73700;BME280;62005;50.082;8.988;2022-08-24T00:44:02;100492.00;;;22.98;46.19
73700;BME280;62005;50.082;8.988;2022-08-24T00:49:27;100517.13;;;22.96;46.74
73700;BME280;62005;50.082;8.988;2022-08-24T00:52:13;100511.19;;;22.89;46.87
73700;BME280;62005;50.082;8.988;2022-08-24T00:54:46;100521.97;;;22.86;47.05
73700;BME280;62005;50.082;8.988;2022-08-24T00:57:15;100522.88;;;22.81;46.96
73700;BME280;62005;50.082;8.988;2022-08-24T00:59:45;100527.31;;;22.82;47.05
73700;BME280;62005;50.082;8.988;2022-08-24T01:02:16;100519.13;;;22.77;47.29
73700;BME280;62005;50.082;8.988;2022-08-24T01:04:50;100526.84;;;22.75;47.78
73700;BME280;62005;50.082;8.988;2022-08-24T01:07:16;100532.38;;;22.75;47.10
73700;BME280;62005;50.082;8.988;2022-08-24T01:09:42;100526.63;;;22.72;47.45
73700;BME280;62005;50.082;8.988;2022-08-24T01:12:08;100514.69;;;22.58;47.57
73700;BME280;62005;50.082;8.988;2022-08-24T01:14:34;100526.41;;;22.68;48.46
73700;BME280;62005;50.082;8.988;2022-08-24T01:17:00;100533.63;;;22.64;47.80
73700;BME280;62005;50.082;8.988;2022-08-24T01:19:49;100517.75;;;22.56;48.15
73700;BME280;62005;50.082;8.988;2022-08-24T01:22:35;100533.13;;;22.62;48.29
73700;BME280;62005;50.082;8.988;2022-08-24T01:25:04;100527.16;;;22.55;48.66
73700;BME280;62005;50.082;8.988;2022-08-24T01:27:30;100538.19;;;22.55;48.63
73700;BME280;62005;50.082;8.988;2022-08-24T01:29:57;100486.28;;;22.20;48.09
73700;BME280;62005;50.082;8.988;2022-08-24T01:32:26;100528.31;;;22.49;48.98
73700;BME280;62005;50.082;8.988;2022-08-24T01:34:52;100522.41;;;22.37;48.64
73700;BME280;62005;50.082;8.988;2022-08-24T01:37:18;100533.13;;;22.39;48.17
73700;BME280;62005;50.082;8.988;2022-08-24T01:39:45;100509.97;;;22.21;49.61
73700;BME280;62005;50.082;8.988;2022-08-24T01:42:11;100530.22;;;22.30;49.95
73700;BME280;62005;50.082;8.988;2022-08-24T01:44:40;100524.25;;;22.23;49.25
73700;BME280;62005;50.082;8.988;2022-08-24T01:47:07;100531.88;;;22.31;49.81
73700;BME280;62005;50.082;8.988;2022-08-24T01:49:36;100533.03;;;22.25;49.62
73700;BME280;62005;50.082;8.988;2022-08-24T01:52:02;100532.44;;;22.28;50.72
73700;BME280;62005;50.082;8.988;2022-08-24T01:54:30;100541.31;;;22.25;49.71
73700;BME280;62005;50.082;8.988;2022-08-24T01:56:55;100541.84;;;22.27;50.16
73700;BME280;62005;50.082;8.988;2022-08-24T01:59:21;100542.19;;;22.21;50.17
73700;BME280;62005;50.082;8.988;2022-08-24T02:01:49;100543.03;;;22.21;49.68
73700;BME280;62005;50.082;8.988;2022-08-24T02:04:16;100541.38;;;22.20;49.83
73700;BME280;62005;50.082;8.988;2022-08-24T02:06:43;100548.31;;;22.18;50.48
73700;BME280;62005;50.082;8.988;2022-08-24T02:09:09;100549.69;;;22.15;50.37
73700;BME280;62005;50.082;8.988;2022-08-24T02:11:36;100516.47;;;21.88;50.25
73700;BME280;62005;50.082;8.988;2022-08-24T02:14:02;100550.59;;;22.11;50.24
73700;BME280;62005;50.082;8.988;2022-08-24T02:16:28;100541.06;;;22.03;50.70
73700;BME280;62005;50.082;8.988;2022-08-24T02:18:53;100520.91;;;21.84;50.94
73700;BME280;62005;50.082;8.988;2022-08-24T02:21:19;100554.72;;;22.08;50.71
73700;BME280;62005;50.082;8.988;2022-08-24T02:23:44;100551.53;;;22.01;51.05
73700;BME280;62005;50.082;8.988;2022-08-24T02:26:10;100540.63;;;21.91;51.14
73700;BME280;62005;50.082;8.988;2022-08-24T02:28:37;100559.84;;;21.96;51.11
73700;BME280;62005;50.082;8.988;2022-08-24T02:31:05;100551.16;;;21.84;51.21
73700;BME280;62005;50.082;8.988;2022-08-24T02:33:33;100566.00;;;21.88;51.53
73700;BME280;62005;50.082;8.988;2022-08-24T02:35:59;100554.50;;;21.81;51.72
73700;BME280;62005;50.082;8.988;2022-08-24T02:38:25;100548.50;;;21.74;51.50
73700;BME280;62005;50.082;8.988;2022-08-24T02:40:50;100510.88;;;21.41;51.98
73700;BME280;62005;50.082;8.988;2022-08-24T02:43:15;100551.66;;;21.62;51.42
73700;BME280;62005;50.082;8.988;2022-08-24T02:45:45;100561.47;;;21.68;51.74
73700;BME280;62005;50.082;8.988;2022-08-24T02:48:12;100538.03;;;21.47;52.29
73700;BME280;62005;50.082;8.988;2022-08-24T02:50:39;100556.94;;;21.54;52.26
73700;BME280;62005;50.082;8.988;2022-08-24T02:53:07;100547.50;;;21.36;52.65
73700;BME280;62005;50.082;8.988;2022-08-24T02:55:33;100521.25;;;21.20;52.89
73700;BME280;62005;50.082;8.988;2022-08-24T02:58:06;100558.75;;;21.40;53.20
73700;BME280;62005;50.082;8.988;2022-08-24T03:00:32;100487.41;;;20.86;53.43
73700;BME280;62005;50.082;8.988;2022-08-24T03:03:00;100557.22;;;21.24;53.71
73700;BME280;62005;50.082;8.988;2022-08-24T03:05:26;100564.44;;;21.20;53.59
73700;BME280;62005;50.082;8.988;2022-08-24T03:07:52;100560.97;;;21.04;54.21
73700;BME280;62005;50.082;8.988;2022-08-24T03:10:17;100546.50;;;20.89;54.38
73700;BME280;62005;50.082;8.988;2022-08-24T03:12:43;100572.28;;;20.93;54.49
73700;BME280;62005;50.082;8.988;2022-08-24T03:15:10;100560.84;;;20.81;54.45
73700;BME280;62005;50.082;8.988;2022-08-24T03:17:36;100552.13;;;20.68;55.11
73700;BME280;62005;50.082;8.988;2022-08-24T03:20:03;100543.09;;;20.63;54.81
73700;BME280;62005;50.082;8.988;2022-08-24T03:22:29;100547.22;;;20.65;55.11
73700;BME280;62005;50.082;8.988;2022-08-24T03:24:55;100563.13;;;20.68;55.25
73700;BME280;62005;50.082;8.988;2022-08-24T03:27:20;100548.09;;;20.56;54.79
73700;BME280;62005;50.082;8.988;2022-08-24T03:29:46;100543.72;;;20.50;55.63
73700;BME280;62005;50.082;8.988;2022-08-24T03:32:11;100551.09;;;20.54;55.48
73700;BME280;62005;50.082;8.988;2022-08-24T03:34:37;100552.25;;;20.48;55.58
73700;BME280;62005;50.082;8.988;2022-08-24T03:37:03;100534.50;;;20.31;55.24
73700;BME280;62005;50.082;8.988;2022-08-24T03:39:29;100537.47;;;20.39;55.44
73700;BME280;62005;50.082;8.988;2022-08-24T03:41:54;100544.91;;;20.34;55.73
73700;BME280;62005;50.082;8.988;2022-08-24T03:44:20;100545.22;;;20.27;55.72
73700;BME280;62005;50.082;8.988;2022-08-24T03:46:45;100535.41;;;20.11;56.36
73700;BME280;62005;50.082;8.988;2022-08-24T03:49:11;100541.97;;;20.10;56.56
73700;BME280;62005;50.082;8.988;2022-08-24T03:51:39;100547.75;;;20.09;56.78
73700;BME280;62005;50.082;8.988;2022-08-24T03:54:06;100549.66;;;20.03;56.86
73700;BME280;62005;50.082;8.988;2022-08-24T03:56:32;100545.59;;;20.01;56.83
73700;BME280;62005;50.082;8.988;2022-08-24T03:58:58;100548.06;;;19.92;57.24
73700;BME280;62005;50.082;8.988;2022-08-24T04:01:25;100551.94;;;19.91;57.07
73700;BME280;62005;50.082;8.988;2022-08-24T04:03:51;100553.56;;;19.92;57.29
73700;BME280;62005;50.082;8.988;2022-08-24T04:06:21;100550.00;;;19.87;57.05
73700;BME280;62005;50.082;8.988;2022-08-24T04:08:47;100560.19;;;19.86;57.35
73700;BME280;62005;50.082;8.988;2022-08-24T04:11:16;100560.75;;;19.83;57.07
73700;BME280;62005;50.082;8.988;2022-08-24T04:13:42;100553.06;;;19.75;57.61
73700;BME280;62005;50.082;8.988;2022-08-24T04:16:10;100563.53;;;19.68;57.92
73700;BME280;62005;50.082;8.988;2022-08-24T04:18:37;100557.78;;;19.55;58.41
73700;BME280;62005;50.082;8.988;2022-08-24T04:21:03;100569.56;;;19.55;58.28
73700;BME280;62005;50.082;8.988;2022-08-24T04:23:29;100573.13;;;19.51;57.97
73700;BME280;62005;50.082;8.988;2022-08-24T04:25:54;100570.66;;;19.49;58.13
73700;BME280;62005;50.082;8.988;2022-08-24T04:28:20;100554.22;;;19.34;58.51
73700;BME280;62005;50.082;8.988;2022-08-24T04:30:48;100562.72;;;19.42;57.53
73700;BME280;62005;50.082;8.988;2022-08-24T04:33:18;100563.56;;;19.43;57.99
73700;BME280;62005;50.082;8.988;2022-08-24T04:35:46;100566.00;;;19.50;57.28
73700;BME280;62005;50.082;8.988;2022-08-24T04:38:13;100570.13;;;19.42;58.41
73700;BME280;62005;50.082;8.988;2022-08-24T04:40:41;100567.09;;;19.28;58.19
73700;BME280;62005;50.082;8.988;2022-08-24T04:43:07;100577.28;;;19.33;57.98
73700;BME280;62005;50.082;8.988;2022-08-24T04:45:38;100578.38;;;19.32;58.99
73700;BME280;62005;50.082;8.988;2022-08-24T04:48:04;100522.97;;;18.95;58.50
73700;BME280;62005;50.082;8.988;2022-08-24T04:50:29;100584.09;;;19.30;58.93
73700;BME280;62005;50.082;8.988;2022-08-24T04:52:55;100581.63;;;19.29;58.83
73700;BME280;62005;50.082;8.988;2022-08-24T04:55:20;100570.13;;;19.22;58.82
73700;BME280;62005;50.082;8.988;2022-08-24T04:57:45;100570.38;;;19.25;59.32
73700;BME280;62005;50.082;8.988;2022-08-24T05:00:11;100580.28;;;19.31;58.03
73700;BME280;62005;50.082;8.988;2022-08-24T05:02:37;100587.94;;;19.50;58.43
73700;BME280;62005;50.082;8.988;2022-08-24T05:05:07;100584.09;;;19.51;58.62
73700;BME280;62005;50.082;8.988;2022-08-24T05:07:33;100577.25;;;19.53;57.50
73700;BME280;62005;50.082;8.988;2022-08-24T05:09:58;100595.31;;;19.64;58.67
73700;BME280;62005;50.082;8.988;2022-08-24T05:12:24;100590.38;;;19.71;58.64
73700;BME280;62005;50.082;8.988;2022-08-24T05:14:51;100573.94;;;19.71;58.33
73700;BME280;62005;50.082;8.988;2022-08-24T05:17:16;100572.25;;;19.80;57.55
73700;BME280;62005;50.082;8.988;2022-08-24T05:19:41;100590.06;;;19.98;58.03
73700;BME280;62005;50.082;8.988;2022-08-24T05:22:07;100570.00;;;19.97;57.65
73700;BME280;62005;50.082;8.988;2022-08-24T05:24:32;100587.25;;;20.23;57.82
73700;BME280;62005;50.082;8.988;2022-08-24T05:26:58;100590.75;;;20.38;56.49
73700;BME280;62005;50.082;8.988;2022-08-24T05:29:24;100591.81;;;20.47;56.43
73700;BME280;62005;50.082;8.988;2022-08-24T05:31:50;100583.00;;;20.50;56.97
73700;BME280;62005;50.082;8.988;2022-08-24T05:34:16;100596.59;;;20.76;56.69
73700;BME280;62005;50.082;8.988;2022-08-24T05:36:42;100591.06;;;20.86;56.25
73700;BME280;62005;50.082;8.988;2022-08-24T05:39:13;100585.41;;;21.06;56.39
73700;BME280;62005;50.082;8.988;2022-08-24T05:41:39;100591.19;;;21.43;56.05
73700;BME280;62005;50.082;8.988;2022-08-24T05:44:06;100598.56;;;21.81;54.70
73700;BME280;62005;50.082;8.988;2022-08-24T05:46:32;100590.72;;;22.17;53.85
73700;BME280;62005;50.082;8.988;2022-08-24T05:48:58;100604.88;;;22.52;52.57
73700;BME280;62005;50.082;8.988;2022-08-24T05:51:24;100582.34;;;22.69;51.62
73700;BME280;62005;50.082;8.988;2022-08-24T05:53:49;100597.56;;;23.03;51.54
73700;BME280;62005;50.082;8.988;2022-08-24T05:56:17;100590.00;;;23.28;50.97
73700;BME280;62005;50.082;8.988;2022-08-24T05:58:44;100595.03;;;23.58;49.97
73700;BME280;62005;50.082;8.988;2022-08-24T06:01:13;100608.59;;;23.86;49.85
73700;BME280;62005;50.082;8.988;2022-08-24T06:03:40;100598.22;;;24.24;49.05
73700;BME280;62005;50.082;8.988;2022-08-24T06:06:06;100596.53;;;24.50;48.13
73700;BME280;62005;50.082;8.988;2022-08-24T06:08:41;100602.44;;;24.84;47.31
73700;BME280;62005;50.082;8.988;2022-08-24T06:11:07;100594.53;;;24.91;47.09
73700;BME280;62005;50.082;8.988;2022-08-24T06:13:33;100603.00;;;25.08;46.76
73700;BME280;62005;50.082;8.988;2022-08-24T06:16:09;100597.47;;;25.08;46.77
73700;BME280;62005;50.082;8.988;2022-08-24T06:18:36;100605.53;;;25.40;45.99
73700;BME280;62005;50.082;8.988;2022-08-24T06:21:13;100609.28;;;25.89;45.20
73700;BME280;62005;50.082;8.988;2022-08-24T06:23:41;100605.78;;;26.36;43.77
73700;BME280;62005;50.082;8.988;2022-08-24T06:26:09;100583.69;;;26.70;43.03
73700;BME280;62005;50.082;8.988;2022-08-24T06:28:54;100592.03;;;27.04;41.90
73700;BME280;62005;50.082;8.988;2022-08-24T06:31:20;100606.41;;;27.49;40.59
73700;BME280;62005;50.082;8.988;2022-08-24T06:33:46;100584.06;;;27.45;41.07
73700;BME280;62005;50.082;8.988;2022-08-24T06:36:12;100600.97;;;27.69;40.40
73700;BME280;62005;50.082;8.988;2022-08-24T06:38:38;100608.66;;;27.64;41.16
73700;BME280;62005;50.082;8.988;2022-08-24T06:41:04;100573.28;;;27.35;40.89
73700;BME280;62005;50.082;8.988;2022-08-24T06:43:30;100598.44;;;27.30;40.92
73700;BME280;62005;50.082;8.988;2022-08-24T06:45:56;100598.28;;;27.35;41.42
73700;BME280;62005;50.082;8.988;2022-08-24T06:48:21;100608.56;;;27.43;40.89
73700;BME280;62005;50.082;8.988;2022-08-24T06:50:47;100593.50;;;27.27;41.24
73700;BME280;62005;50.082;8.988;2022-08-24T06:53:14;100608.06;;;27.41;40.95
73700;BME280;62005;50.082;8.988;2022-08-24T06:55:47;100610.84;;;27.41;40.98
73700;BME280;62005;50.082;8.988;2022-08-24T06:58:13;100603.50;;;27.45;40.92
73700;BME280;62005;50.082;8.988;2022-08-24T07:00:39;100602.66;;;27.36;41.42
73700;BME280;62005;50.082;8.988;2022-08-24T07:03:04;100571.63;;;27.00;41.20
73700;BME280;62005;50.082;8.988;2022-08-24T07:05:29;100579.47;;;26.98;41.45
73700;BME280;62005;50.082;8.988;2022-08-24T07:07:55;100597.75;;;27.16;41.65
73700;BME280;62005;50.082;8.988;2022-08-24T07:10:22;100614.06;;;27.26;41.37
73700;BME280;62005;50.082;8.988;2022-08-24T07:12:47;100591.03;;;27.26;41.78
73700;BME280;62005;50.082;8.988;2022-08-24T07:15:12;100609.84;;;27.37;41.31
73700;BME280;62005;50.082;8.988;2022-08-24T07:17:38;100601.69;;;27.32;41.17
73700;BME280;62005;50.082;8.988;2022-08-24T07:20:04;100593.19;;;27.37;41.08
73700;BME280;62005;50.082;8.988;2022-08-24T07:22:29;100614.72;;;27.57;40.80
73700;BME280;62005;50.082;8.988;2022-08-24T07:24:55;100597.72;;;27.50;40.46
73700;BME280;62005;50.082;8.988;2022-08-24T07:27:20;100601.31;;;27.59;40.97
73700;BME280;62005;50.082;8.988;2022-08-24T07:29:52;100614.34;;;27.84;40.96
73700;BME280;62005;50.082;8.988;2022-08-24T07:32:18;100608.75;;;28.01;40.68
73700;BME280;62005;50.082;8.988;2022-08-24T07:34:44;100626.31;;;28.31;40.25
73700;BME280;62005;50.082;8.988;2022-08-24T07:37:09;100630.50;;;28.46;39.95
73700;BME280;62005;50.082;8.988;2022-08-24T07:39:35;100632.88;;;28.64;39.90
73700;BME280;62005;50.082;8.988;2022-08-24T07:42:04;100605.06;;;28.64;39.94
73700;BME280;62005;50.082;8.988;2022-08-24T07:44:29;100612.94;;;28.83;39.83
73700;BME280;62005;50.082;8.988;2022-08-24T07:46:56;100607.94;;;28.97;39.11
73700;BME280;62005;50.082;8.988;2022-08-24T07:49:21;100602.44;;;29.09;38.76
73700;BME280;62005;50.082;8.988;2022-08-24T07:51:47;100618.09;;;29.22;38.23
73700;BME280;62005;50.082;8.988;2022-08-24T07:54:13;100620.19;;;29.25;38.33
73700;BME280;62005;50.082;8.988;2022-08-24T07:56:39;100630.91;;;29.35;38.41
73700;BME280;62005;50.082;8.988;2022-08-24T07:59:04;100623.88;;;29.50;38.28
73700;BME280;62005;50.082;8.988;2022-08-24T08:01:30;100612.41;;;29.51;37.97
73700;BME280;62005;50.082;8.988;2022-08-24T08:03:55;100614.56;;;29.66;37.23
73700;BME280;62005;50.082;8.988;2022-08-24T08:06:21;100615.75;;;29.77;37.23
73700;BME280;62005;50.082;8.988;2022-08-24T08:08:46;100632.31;;;29.94;37.00
73700;BME280;62005;50.082;8.988;2022-08-24T08:11:12;100630.69;;;30.05;36.67
73700;BME280;62005;50.082;8.988;2022-08-24T08:13:37;100620.44;;;29.97;36.03
73700;BME280;62005;50.082;8.988;2022-08-24T08:16:03;100619.28;;;29.86;36.09
73700;BME280;62005;50.082;8.988;2022-08-24T08:18:29;100627.16;;;29.84;36.28
73700;BME280;62005;50.082;8.988;2022-08-24T08:20:55;100618.84;;;29.96;37.11
73700;BME280;62005;50.082;8.988;2022-08-24T08:23:21;100633.25;;;30.10;36.12
73700;BME280;62005;50.082;8.988;2022-08-24T08:26:12;100642.13;;;30.36;35.30
73700;BME280;62005;50.082;8.988;2022-08-24T08:28:38;100627.50;;;30.27;35.78
73700;BME280;62005;50.082;8.988;2022-08-24T08:31:06;100622.63;;;30.24;35.59
73700;BME280;62005;50.082;8.988;2022-08-24T08:33:32;100631.22;;;30.31;35.34
73700;BME280;62005;50.082;8.988;2022-08-24T08:36:06;100625.41;;;30.24;34.63
73700;BME280;62005;50.082;8.988;2022-08-24T08:38:34;100610.72;;;30.15;35.09
73700;BME280;62005;50.082;8.988;2022-08-24T08:43:53;100626.06;;;30.21;34.37
73700;BME280;62005;50.082;8.988;2022-08-24T08:50:25;100631.22;;;30.31;34.55
73700;BME280;62005;50.082;8.988;2022-08-24T08:52:47;100634.94;;;30.23;34.68
73700;BME280;62005;50.082;8.988;2022-08-24T09:01:51;100632.31;;;29.94;35.19
73700;BME280;62005;50.082;8.988;2022-08-24T09:09:54;100628.38;;;30.07;34.83
73700;BME280;62005;50.082;8.988;2022-08-24T09:18:30;100634.78;;;30.20;34.02
73700;BME280;62005;50.082;8.988;2022-08-24T09:21:12;100629.34;;;30.23;34.71
73700;BME280;62005;50.082;8.988;2022-08-24T09:23:51;100628.88;;;30.33;34.45
73700;BME280;62005;50.082;8.988;2022-08-24T09:26:27;100621.69;;;30.32;33.03
73700;BME280;62005;50.082;8.988;2022-08-24T09:29:17;100628.56;;;30.47;34.43
73700;BME280;62005;50.082;8.988;2022-08-24T09:35:03;100605.19;;;30.39;34.45
73700;BME280;62005;50.082;8.988;2022-08-24T09:37:34;100621.56;;;30.53;33.32
73700;BME280;62005;50.082;8.988;2022-08-24T09:50:48;100617.28;;;30.43;33.33
73700;BME280;62005;50.082;8.988;2022-08-24T09:56:03;100615.53;;;30.39;32.75
73700;BME280;62005;50.082;8.988;2022-08-24T10:07:08;100613.31;;;30.69;32.78
73700;BME280;62005;50.082;8.988;2022-08-24T10:12:37;100573.75;;;30.54;33.15
73700;BME280;62005;50.082;8.988;2022-08-24T10:15:10;100603.03;;;30.73;33.25
73700;BME280;62005;50.082;8.988;2022-08-24T10:29:28;100594.91;;;30.92;32.50
73700;BME280;62005;50.082;8.988;2022-08-24T10:32:10;100595.69;;;31.04;32.19
73700;BME280;62005;50.082;8.988;2022-08-24T10:35:13;100592.94;;;30.92;32.43
73700;BME280;62005;50.082;8.988;2022-08-24T10:38:17;100583.03;;;30.95;32.81
73700;BME280;62005;50.082;8.988;2022-08-24T10:41:40;100569.53;;;30.97;32.34
73700;BME280;62005;50.082;8.988;2022-08-24T10:46:49;100589.25;;;31.16;33.29
73700;BME280;62005;50.082;8.988;2022-08-24T10:54:39;100553.91;;;31.08;32.01
73700;BME280;62005;50.082;8.988;2022-08-24T10:57:22;100574.13;;;31.17;31.22
73700;BME280;62005;50.082;8.988;2022-08-24T11:00:12;100579.72;;;31.17;30.97
73700;BME280;62005;50.082;8.988;2022-08-24T11:02:41;100575.63;;;31.14;31.50
73700;BME280;62005;50.082;8.988;2022-08-24T11:05:26;100574.63;;;31.07;31.78
73700;BME280;62005;50.082;8.988;2022-08-24T11:08:01;100576.84;;;31.01;31.46
73700;BME280;62005;50.082;8.988;2022-08-24T11:10:32;100576.03;;;31.01;32.05
73700;BME280;62005;50.082;8.988;2022-08-24T11:13:20;100571.16;;;30.98;30.85
73700;BME280;62005;50.082;8.988;2022-08-24T11:15:52;100573.50;;;30.96;31.37
73700;BME280;62005;50.082;8.988;2022-08-24T11:18:18;100581.81;;;31.08;31.68
73700;BME280;62005;50.082;8.988;2022-08-24T11:20:46;100544.88;;;30.99;32.46
73700;BME280;62005;50.082;8.988;2022-08-24T11:23:24;100572.34;;;31.24;30.90
73700;BME280;62005;50.082;8.988;2022-08-24T11:26:02;100562.88;;;31.29;29.94
73700;BME280;62005;50.082;8.988;2022-08-24T11:28:39;100536.41;;;31.11;30.79
73700;BME280;62005;50.082;8.988;2022-08-24T11:34:00;100557.38;;;31.17;29.74
73700;BME280;62005;50.082;8.988;2022-08-24T11:36:32;100563.84;;;31.21;30.02
73700;BME280;62005;50.082;8.988;2022-08-24T11:39:22;100562.22;;;31.20;29.72
73700;BME280;62005;50.082;8.988;2022-08-24T11:42:02;100542.31;;;31.21;29.87
73700;BME280;62005;50.082;8.988;2022-08-24T11:44:36;100559.59;;;31.39;29.61
73700;BME280;62005;50.082;8.988;2022-08-24T11:47:16;100541.94;;;31.35;29.72
73700;BME280;62005;50.082;8.988;2022-08-24T11:52:43;100556.22;;;31.61;29.74
73700;BME280;62005;50.082;8.988;2022-08-24T11:57:58;100540.53;;;31.72;29.21
73700;BME280;62005;50.082;8.988;2022-08-24T12:00:45;100531.38;;;31.87;30.55
73700;BME280;62005;50.082;8.988;2022-08-24T12:03:23;100513.69;;;31.83;28.88
73700;BME280;62005;50.082;8.988;2022-08-24T12:06:17;100509.97;;;31.79;28.81
73700;BME280;62005;50.082;8.988;2022-08-24T12:09:19;100498.34;;;31.77;29.14
73700;BME280;62005;50.082;8.988;2022-08-24T12:12:11;100529.31;;;32.00;27.26
73700;BME280;62005;50.082;8.988;2022-08-24T12:14:44;100541.84;;;31.90;28.57
73700;BME280;62005;50.082;8.988;2022-08-24T12:19:53;100473.97;;;31.62;27.22
73700;BME280;62005;50.082;8.988;2022-08-24T12:22:20;100528.50;;;31.99;27.08
73700;BME280;62005;50.082;8.988;2022-08-24T12:24:53;100527.78;;;32.02;26.69
73700;BME280;62005;50.082;8.988;2022-08-24T12:27:26;100525.63;;;32.11;26.84
73700;BME280;62005;50.082;8.988;2022-08-24T12:30:06;100521.81;;;32.19;26.85
73700;BME280;62005;50.082;8.988;2022-08-24T12:32:37;100523.16;;;32.25;26.90
73700;BME280;62005;50.082;8.988;2022-08-24T12:40:31;100520.25;;;32.37;26.44
73700;BME280;62005;50.082;8.988;2022-08-24T12:43:10;100502.81;;;32.28;26.10
73700;BME280;62005;50.082;8.988;2022-08-24T12:45:36;100499.22;;;32.28;27.38
73700;BME280;62005;50.082;8.988;2022-08-24T12:48:22;100500.84;;;32.44;27.10
73700;BME280;62005;50.082;8.988;2022-08-24T12:53:48;100515.72;;;32.48;26.48
73700;BME280;62005;50.082;8.988;2022-08-24T12:59:19;100515.13;;;32.39;26.31
73700;BME280;62005;50.082;8.988;2022-08-24T13:02:02;100513.47;;;32.38;26.43
73700;BME280;62005;50.082;8.988;2022-08-24T13:09:49;100499.94;;;32.40;26.55
73700;BME280;62005;50.082;8.988;2022-08-24T13:17:52;100479.56;;;32.24;25.62
73700;BME280;62005;50.082;8.988;2022-08-24T13:20:51;100502.13;;;32.31;26.19
73700;BME280;62005;50.082;8.988;2022-08-24T13:23:20;100484.25;;;32.20;26.60
73700;BME280;62005;50.082;8.988;2022-08-24T13:50:37;100480.31;;;32.06;27.01
73700;BME280;62005;50.082;8.988;2022-08-24T13:53:44;100471.66;;;31.95;26.47
73700;BME280;62005;50.082;8.988;2022-08-24T13:56:31;100455.59;;;31.92;26.15
73700;BME280;62005;50.082;8.988;2022-08-24T14:01:58;100466.78;;;31.92;26.62
73700;BME280;62005;50.082;8.988;2022-08-24T14:12:35;100464.63;;;31.70;26.63
73700;BME280;62005;50.082;8.988;2022-08-24T14:15:18;100456.94;;;31.67;27.43
73700;BME280;62005;50.082;8.988;2022-08-24T14:17:54;100453.34;;;31.66;27.78
73700;BME280;62005;50.082;8.988;2022-08-24T14:21:05;100452.59;;;31.54;26.83
73700;BME280;62005;50.082;8.988;2022-08-24T14:39:54;100444.59;;;31.37;28.91
73700;BME280;62005;50.082;8.988;2022-08-24T14:42:37;100430.91;;;31.32;29.03
73700;BME280;62005;50.082;8.988;2022-08-24T14:45:08;100426.19;;;31.36;28.21
73700;BME280;62005;50.082;8.988;2022-08-24T14:50:28;100430.03;;;31.31;28.39
73700;BME280;62005;50.082;8.988;2022-08-24T14:53:48;100418.78;;;31.28;28.36
73700;BME280;62005;50.082;8.988;2022-08-24T15:01:38;100418.03;;;31.31;28.68
73700;BME280;62005;50.082;8.988;2022-08-24T15:06:51;100371.00;;;31.02;28.94
73700;BME280;62005;50.082;8.988;2022-08-24T15:09:20;100414.13;;;31.32;29.27
73700;BME280;62005;50.082;8.988;2022-08-24T15:11:47;100392.28;;;31.22;28.74
73700;BME280;62005;50.082;8.988;2022-08-24T15:14:34;100401.53;;;31.26;28.54
73700;BME280;62005;50.082;8.988;2022-08-24T15:17:07;100373.16;;;31.08;28.53
73700;BME280;62005;50.082;8.988;2022-08-24T15:25:10;100390.81;;;31.28;27.80
73700;BME280;62005;50.082;8.988;2022-08-24T15:27:45;100371.53;;;31.23;28.08
73700;BME280;62005;50.082;8.988;2022-08-24T15:30:27;100381.25;;;31.29;28.07
73700;BME280;62005;50.082;8.988;2022-08-24T15:33:11;100393.38;;;31.33;28.19
73700;BME280;62005;50.082;8.988;2022-08-24T15:35:43;100383.81;;;31.34;28.51
73700;BME280;62005;50.082;8.988;2022-08-24T15:40:41;100374.06;;;31.28;28.40
73700;BME280;62005;50.082;8.988;2022-08-24T15:43:08;100377.31;;;31.30;28.46
73700;BME280;62005;50.082;8.988;2022-08-24T15:45:40;100383.81;;;31.34;28.37
73700;BME280;62005;50.082;8.988;2022-08-24T15:48:10;100406.16;;;31.34;28.40
73700;BME280;62005;50.082;8.988;2022-08-24T15:50:42;100397.88;;;31.22;28.72
73700;BME280;62005;50.082;8.988;2022-08-24T15:53:39;100393.00;;;31.19;29.05
73700;BME280;62005;50.082;8.988;2022-08-24T15:58:46;100400.19;;;31.20;29.78
73700;BME280;62005;50.082;8.988;2022-08-24T16:09:35;100393.59;;;31.12;29.64
73700;BME280;62005;50.082;8.988;2022-08-24T16:12:11;100397.56;;;31.11;29.88
73700;BME280;62005;50.082;8.988;2022-08-24T16:14:44;100394.94;;;31.03;29.42
73700;BME280;62005;50.082;8.988;2022-08-24T16:17:39;100391.00;;;31.04;29.98